KBAX

Details ICAO KBAX
Name HURON CO MEM
Region United States
Timezone America/Detroit (UTC-4.0)
Plans Departing 3
Arriving 5
Stats Elevation 766 ft / 233 m (AMSL)
Location 43.780630° -82.985502°
Runways 2
Magnetic Variation 7.927° W
Sunrise 2018-05-24 09:59:32 UTC / 2018-05-24 05:59:32 Local
Sunset 2018-05-25 01:00:56 UTC / 2018-05-24 21:00:56 Local
Advertisement - Login to hide

Runways

ID Width Length Bearing (true) Bearing (mag) Surface Threshold Offset Overrun Length
04 75 ft / 23 m 3,496 ft / 1,065 m 28.28° 36.21° Asphalt 300 ft / 91 m 0 ft / 0 m
17 75 ft / 23 m 5,005 ft / 1,525 m 164.82° 172.75° Asphalt 0 ft / 0 m 0 ft / 0 m
22 75 ft / 23 m 3,496 ft / 1,065 m 208.28° 216.21° Asphalt 0 ft / 0 m 0 ft / 0 m
35 75 ft / 23 m 5,005 ft / 1,525 m 344.82° 352.75° Asphalt 0 ft / 0 m 0 ft / 0 m

Map

Weather


0- 5 10 15 20 25 30 35+ Temperature / ° C

Clouds and Precipitation
Forecast for 2018-05-24 18:00 UTC. Updated an hour ago

Ground ~20,000 ft ~40,000 ft Winds

METAR

KBAX 241757Z AUTO 27007KT 10SM CLR 26/12 A3017 RMK AO2 T02620115 10263 20152

TAF

Not found

Frequencies

Unicom 122.97 MHz CTAF/UNICOM
Warning: Do not use this data for real-world aviation or navigation. No guarantee of current accuracy is given.